world map with ZQN marked

ZQN - Airport

This information may not be accurate or current and is not valid for navigation or flight planning. No warranty of fitness for any purpose is made or implied.

flag of New Zealand

Donate via PayPal

Additional information is available on the NEW Great Circle Mapper

Location
City:  Queenstown, Otago (O Takou), New Zealand
Name:Queenstown International Airport
ICAO / IATA:NZQN / ZQN

Details
Type:Airport (Aerodrome, Airfield)
Latitude:45°01'16"S (-45.021110)
Longitude:168°44'21"E (168.739167)
Elevation:1171 ft (357 m)
Runways:3
Longest:6204 × 98 ft (1891 × 30 m)

Time
Timezone:UTC+12 (DST+15)
Local Time:

Weather
TAF:NZQN  041018Z 0411/0505 VRB02KT 9999 -RA BKN080 BECMG 0421/0423 26012KT

Related Locations
Nearby:
Farthest:LCG: 12250 mi / 19714 km
A Coruņa [A Coruņa Airport (Alvedro Airport)], GA, ES

Find:

   beyond  
but within

Other Information
Maps:
Sources:

  


 


Great Circle Mapper   Great Circle Mapper
Great Circle Mapper FAQ   Great Circle Mapper FAQ
  Karl's Home Page
KLSē   KLSē Home
   GC on Facebook
Airlines of the World   Airlines of the World
Donate via PayPal


Copyright © 2004-2019, Karl L. Swartz. All rights reserved.
All trademarks mentioned herein belong to their respective owners.

Please see credits for attribution and copyright information.

Karl Swartz <karl@kls2.com>
  Powered by FreeBSD
Valid HTML 4.01!
Labeled with ICRA
hCard Microformat
Geo Microformat